sensor_id;sensor_type;location;lat;lon;timestamp;temperature;humidity
52903;DHT22;38765;53.176;7.090;2022-09-02T00:00:05;14.80;99.90
52903;DHT22;38765;53.176;7.090;2022-09-02T00:02:50;14.70;99.90
52903;DHT22;38765;53.176;7.090;2022-09-02T00:05:44;14.80;99.90
52903;DHT22;38765;53.176;7.090;2022-09-02T00:08:16;14.70;99.90
52903;DHT22;38765;53.176;7.090;2022-09-02T00:11:02;14.70;99.90
52903;DHT22;38765;53.176;7.090;2022-09-02T00:13:53;14.70;99.90
52903;DHT22;38765;53.176;7.090;2022-09-02T00:16:50;14.80;99.90
52903;DHT22;38765;53.176;7.090;2022-09-02T00:25:29;14.60;99.90
52903;DHT22;38765;53.176;7.090;2022-09-02T00:27:55;14.60;99.90
52903;DHT22;38765;53.176;7.090;2022-09-02T00:31:09;14.50;99.90
52903;DHT22;38765;53.176;7.090;2022-09-02T00:33:45;14.50;99.90
52903;DHT22;38765;53.176;7.090;2022-09-02T00:39:40;14.50;99.90
52903;DHT22;38765;53.176;7.090;2022-09-02T00:45:01;14.40;99.90
52903;DHT22;38765;53.176;7.090;2022-09-02T00:47:58;14.40;99.90
52903;DHT22;38765;53.176;7.090;2022-09-02T00:50:35;14.40;99.90
52903;DHT22;38765;53.176;7.090;2022-09-02T01:04:59;14.00;99.90
52903;DHT22;38765;53.176;7.090;2022-09-02T01:07:46;14.20;99.90
52903;DHT22;38765;53.176;7.090;2022-09-02T01:10:17;14.00;99.90
52903;DHT22;38765;53.176;7.090;2022-09-02T01:13:23;14.10;99.90
52903;DHT22;38765;53.176;7.090;2022-09-02T01:16:18;14.10;99.90
52903;DHT22;38765;53.176;7.090;2022-09-02T01:19:00;14.00;99.90
52903;DHT22;38765;53.176;7.090;2022-09-02T01:30:52;13.90;99.90
52903;DHT22;38765;53.176;7.090;2022-09-02T01:33:39;14.20;99.90
52903;DHT22;38765;53.176;7.090;2022-09-02T01:36:28;13.80;99.90
52903;DHT22;38765;53.176;7.090;2022-09-02T01:39:15;13.80;99.90
52903;DHT22;38765;53.176;7.090;2022-09-02T01:41:53;13.80;99.90
52903;DHT22;38765;53.176;7.090;2022-09-02T01:44:34;13.70;99.90
52903;DHT22;38765;53.176;7.090;2022-09-02T01:47:24;13.70;99.90
52903;DHT22;38765;53.176;7.090;2022-09-02T01:52:52;13.60;99.90
52903;DHT22;38765;53.176;7.090;2022-09-02T01:55:32;13.70;99.90
52903;DHT22;38765;53.176;7.090;2022-09-02T01:58:14;13.60;99.90
52903;DHT22;38765;53.176;7.090;2022-09-02T02:00:54;13.50;99.90
52903;DHT22;38765;53.176;7.090;2022-09-02T02:03:25;13.50;99.90
52903;DHT22;38765;53.176;7.090;2022-09-02T02:06:29;13.40;99.90
52903;DHT22;38765;53.176;7.090;2022-09-02T02:09:28;13.40;99.90
52903;DHT22;38765;53.176;7.090;2022-09-02T02:12:19;13.30;99.90
52903;DHT22;38765;53.176;7.090;2022-09-02T02:14:50;13.30;99.90
52903;DHT22;38765;53.176;7.090;2022-09-02T02:17:36;13.30;99.90
52903;DHT22;38765;53.176;7.090;2022-09-02T02:20:16;13.30;99.90
52903;DHT22;38765;53.176;7.090;2022-09-02T02:22:57;13.20;99.90
52903;DHT22;38765;53.176;7.090;2022-09-02T02:25:45;13.20;99.90
52903;DHT22;38765;53.176;7.090;2022-09-02T02:28:11;12.80;99.90
52903;DHT22;38765;53.176;7.090;2022-09-02T02:30:44;13.10;99.90
52903;DHT22;38765;53.176;7.090;2022-09-02T02:33:17;13.10;99.90
52903;DHT22;38765;53.176;7.090;2022-09-02T02:35:52;13.60;99.90
52903;DHT22;38765;53.176;7.090;2022-09-02T02:38:39;13.10;99.90
52903;DHT22;38765;53.176;7.090;2022-09-02T02:41:36;13.00;99.90
52903;DHT22;38765;53.176;7.090;2022-09-02T02:44:26;13.00;99.90
52903;DHT22;38765;53.176;7.090;2022-09-02T02:47:18;13.00;99.90
52903;DHT22;38765;53.176;7.090;2022-09-02T02:50:07;12.50;99.90
52903;DHT22;38765;53.176;7.090;2022-09-02T02:53:02;13.00;99.90
52903;DHT22;38765;53.176;7.090;2022-09-02T02:55:42;12.70;99.90
52903;DHT22;38765;53.176;7.090;2022-09-02T02:58:22;13.00;99.90
52903;DHT22;38765;53.176;7.090;2022-09-02T03:01:13;13.10;99.90
52903;DHT22;38765;53.176;7.090;2022-09-02T03:03:42;12.90;99.90
52903;DHT22;38765;53.176;7.090;2022-09-02T03:06:34;12.90;99.90
52903;DHT22;38765;53.176;7.090;2022-09-02T03:09:31;12.80;99.90
52903;DHT22;38765;53.176;7.090;2022-09-02T03:15:08;12.80;99.90
52903;DHT22;38765;53.176;7.090;2022-09-02T03:18:04;12.80;99.90
52903;DHT22;38765;53.176;7.090;2022-09-02T03:20:44;12.80;99.90
52903;DHT22;38765;53.176;7.090;2022-09-02T03:23:21;12.70;99.90
52903;DHT22;38765;53.176;7.090;2022-09-02T03:25:52;12.70;99.90
52903;DHT22;38765;53.176;7.090;2022-09-02T03:28:36;12.70;99.90
52903;DHT22;38765;53.176;7.090;2022-09-02T03:31:26;12.70;99.90
52903;DHT22;38765;53.176;7.090;2022-09-02T03:34:03;12.70;99.90
52903;DHT22;38765;53.176;7.090;2022-09-02T03:36:46;12.60;99.90
52903;DHT22;38765;53.176;7.090;2022-09-02T03:39:14;12.50;99.90
52903;DHT22;38765;53.176;7.090;2022-09-02T03:41:43;12.60;99.90
52903;DHT22;38765;53.176;7.090;2022-09-02T03:44:27;12.60;99.90
52903;DHT22;38765;53.176;7.090;2022-09-02T03:47:30;12.50;99.90
52903;DHT22;38765;53.176;7.090;2022-09-02T03:53:27;12.30;99.90
52903;DHT22;38765;53.176;7.090;2022-09-02T04:00:19;12.50;99.90
52903;DHT22;38765;53.176;7.090;2022-09-02T04:02:45;12.40;99.90
52903;DHT22;38765;53.176;7.090;2022-09-02T04:05:16;12.10;99.90
52903;DHT22;38765;53.176;7.090;2022-09-02T04:07:53;12.30;99.90
52903;DHT22;38765;53.176;7.090;2022-09-02T04:10:25;12.30;99.90
52903;DHT22;38765;53.176;7.090;2022-09-02T04:13:12;12.30;99.90
52903;DHT22;38765;53.176;7.090;2022-09-02T04:18:58;12.30;99.90
52903;DHT22;38765;53.176;7.090;2022-09-02T04:28:00;12.60;99.90
52903;DHT22;38765;53.176;7.090;2022-09-02T04:30:46;12.10;99.90
52903;DHT22;38765;53.176;7.090;2022-09-02T04:33:25;12.10;99.90
52903;DHT22;38765;53.176;7.090;2022-09-02T04:35:56;12.10;99.90
52903;DHT22;38765;53.176;7.090;2022-09-02T04:38:36;11.60;99.90
52903;DHT22;38765;53.176;7.090;2022-09-02T04:41:14;12.00;99.90
52903;DHT22;38765;53.176;7.090;2022-09-02T04:44:04;11.70;99.90
52903;DHT22;38765;53.176;7.090;2022-09-02T04:46:35;12.00;99.90
52903;DHT22;38765;53.176;7.090;2022-09-02T04:49:35;12.20;99.90
52903;DHT22;38765;53.176;7.090;2022-09-02T04:52:46;12.00;99.90
52903;DHT22;38765;53.176;7.090;2022-09-02T04:55:42;11.80;99.90
52903;DHT22;38765;53.176;7.090;2022-09-02T04:58:26;12.00;99.90
52903;DHT22;38765;53.176;7.090;2022-09-02T05:01:30;12.00;99.90
52903;DHT22;38765;53.176;7.090;2022-09-02T05:04:14;11.90;99.90
52903;DHT22;38765;53.176;7.090;2022-09-02T05:07:11;12.00;99.90
52903;DHT22;38765;53.176;7.090;2022-09-02T05:10:18;12.00;99.90
52903;DHT22;38765;53.176;7.090;2022-09-02T05:13:12;12.00;99.90
52903;DHT22;38765;53.176;7.090;2022-09-02T05:15:52;11.90;99.90
52903;DHT22;38765;53.176;7.090;2022-09-02T05:21:25;11.90;99.90
52903;DHT22;38765;53.176;7.090;2022-09-02T05:30:53;12.00;99.90
52903;DHT22;38765;53.176;7.090;2022-09-02T05:43:22;12.20;99.90
52903;DHT22;38765;53.176;7.090;2022-09-02T05:46:14;12.20;99.90
52903;DHT22;38765;53.176;7.090;2022-09-02T05:48:48;12.30;99.90
52903;DHT22;38765;53.176;7.090;2022-09-02T05:51:49;12.20;99.90
52903;DHT22;38765;53.176;7.090;2022-09-02T05:54:40;12.30;99.90
52903;DHT22;38765;53.176;7.090;2022-09-02T05:57:16;12.50;99.90
52903;DHT22;38765;53.176;7.090;2022-09-02T05:59:48;12.40;99.90
52903;DHT22;38765;53.176;7.090;2022-09-02T06:02:28;12.50;99.90
52903;DHT22;38765;53.176;7.090;2022-09-02T06:05:37;12.50;99.90
52903;DHT22;38765;53.176;7.090;2022-09-02T06:08:58;12.60;99.90
52903;DHT22;38765;53.176;7.090;2022-09-02T06:11:45;12.80;99.90
52903;DHT22;38765;53.176;7.090;2022-09-02T06:17:35;12.90;99.90
52903;DHT22;38765;53.176;7.090;2022-09-02T06:20:24;12.90;99.90
52903;DHT22;38765;53.176;7.090;2022-09-02T06:23:15;13.00;99.90
52903;DHT22;38765;53.176;7.090;2022-09-02T06:26:23;13.20;99.90
52903;DHT22;38765;53.176;7.090;2022-09-02T06:29:13;13.20;99.90
52903;DHT22;38765;53.176;7.090;2022-09-02T06:31:43;13.30;99.90
52903;DHT22;38765;53.176;7.090;2022-09-02T06:34:52;13.30;99.90
52903;DHT22;38765;53.176;7.090;2022-09-02T06:41:05;13.40;99.90
52903;DHT22;38765;53.176;7.090;2022-09-02T06:44:01;13.50;99.90
52903;DHT22;38765;53.176;7.090;2022-09-02T06:46:44;13.60;99.90
52903;DHT22;38765;53.176;7.090;2022-09-02T06:49:29;13.70;99.90
52903;DHT22;38765;53.176;7.090;2022-09-02T06:52:31;13.80;99.90
52903;DHT22;38765;53.176;7.090;2022-09-02T06:58:10;13.90;99.90
52903;DHT22;38765;53.176;7.090;2022-09-02T07:07:44;14.20;99.90
52903;DHT22;38765;53.176;7.090;2022-09-02T07:10:21;14.30;99.90
52903;DHT22;38765;53.176;7.090;2022-09-02T07:12:59;14.30;99.90
52903;DHT22;38765;53.176;7.090;2022-09-02T07:18:36;14.70;99.90
52903;DHT22;38765;53.176;7.090;2022-09-02T07:21:14;14.70;99.90
52903;DHT22;38765;53.176;7.090;2022-09-02T07:26:41;14.70;99.90
52903;DHT22;38765;53.176;7.090;2022-09-02T07:33:23;14.80;99.90
52903;DHT22;38765;53.176;7.090;2022-09-02T07:35:53;14.70;99.90
52903;DHT22;38765;53.176;7.090;2022-09-02T07:38:40;15.00;99.90
52903;DHT22;38765;53.176;7.090;2022-09-02T07:41:23;15.10;99.90
52903;DHT22;38765;53.176;7.090;2022-09-02T07:44:38;15.20;99.90
52903;DHT22;38765;53.176;7.090;2022-09-02T07:47:56;15.30;99.90
52903;DHT22;38765;53.176;7.090;2022-09-02T07:50:40;15.40;99.90
52903;DHT22;38765;53.176;7.090;2022-09-02T07:53:31;15.50;99.90
52903;DHT22;38765;53.176;7.090;2022-09-02T07:56:36;15.60;99.90
52903;DHT22;38765;53.176;7.090;2022-09-02T08:05:51;15.90;99.90
52903;DHT22;38765;53.176;7.090;2022-09-02T08:08:24;16.00;99.90
52903;DHT22;38765;53.176;7.090;2022-09-02T08:11:12;15.80;99.90
52903;DHT22;38765;53.176;7.090;2022-09-02T08:14:20;16.10;99.90
52903;DHT22;38765;53.176;7.090;2022-09-02T08:17:18;16.10;99.90
52903;DHT22;38765;53.176;7.090;2022-09-02T08:23:14;16.50;99.90
52903;DHT22;38765;53.176;7.090;2022-09-02T08:26:04;16.60;99.90
52903;DHT22;38765;53.176;7.090;2022-09-02T08:31:41;16.80;99.90
52903;DHT22;38765;53.176;7.090;2022-09-02T08:43:54;17.10;99.90
52903;DHT22;38765;53.176;7.090;2022-09-02T09:41:48;18.60;99.90
52903;DHT22;38765;53.176;7.090;2022-09-02T09:44:46;18.80;99.90
52903;DHT22;38765;53.176;7.090;2022-09-02T09:51:36;19.10;99.90
52903;DHT22;38765;53.176;7.090;2022-09-02T09:54:42;19.10;99.90
52903;DHT22;38765;53.176;7.090;2022-09-02T10:00:34;19.30;99.90
52903;DHT22;38765;53.176;7.090;2022-09-02T10:07:01;19.20;99.90
52903;DHT22;38765;53.176;7.090;2022-09-02T10:38:45;20.20;99.90
52903;DHT22;38765;53.176;7.090;2022-09-02T10:49:21;20.50;99.90
52903;DHT22;38765;53.176;7.090;2022-09-02T10:55:19;20.60;99.90
52903;DHT22;38765;53.176;7.090;2022-09-02T11:01:51;20.80;99.90
52903;DHT22;38765;53.176;7.090;2022-09-02T11:20:59;21.20;99.90
52903;DHT22;38765;53.176;7.090;2022-09-02T11:23:56;21.30;99.90
52903;DHT22;38765;53.176;7.090;2022-09-02T11:53:28;22.10;99.90
52903;DHT22;38765;53.176;7.090;2022-09-02T12:15:19;23.00;99.50
52903;DHT22;38765;53.176;7.090;2022-09-02T12:38:41;23.50;97.10
52903;DHT22;38765;53.176;7.090;2022-09-02T12:48:44;23.80;94.20
52903;DHT22;38765;53.176;7.090;2022-09-02T12:55:41;23.90;94.30
52903;DHT22;38765;53.176;7.090;2022-09-02T13:24:02;24.30;92.20
52903;DHT22;38765;53.176;7.090;2022-09-02T14:36:55;25.50;83.70
52903;DHT22;38765;53.176;7.090;2022-09-02T14:40:40;25.50;84.40
52903;DHT22;38765;53.176;7.090;2022-09-02T15:02:55;25.80;81.30
52903;DHT22;38765;53.176;7.090;2022-09-02T15:09:41;25.90;81.80
52903;DHT22;38765;53.176;7.090;2022-09-02T15:12:51;26.00;80.50
52903;DHT22;38765;53.176;7.090;2022-09-02T15:16:08;26.10;80.60
52903;DHT22;38765;53.176;7.090;2022-09-02T16:29:26;24.40;80.10
52903;DHT22;38765;53.176;7.090;2022-09-02T16:32:21;24.30;79.80
52903;DHT22;38765;53.176;7.090;2022-09-02T16:38:48;24.20;79.20
52903;DHT22;38765;53.176;7.090;2022-09-02T16:41:55;24.20;80.10
52903;DHT22;38765;53.176;7.090;2022-09-02T16:44:44;24.00;80.10
52903;DHT22;38765;53.176;7.090;2022-09-02T16:48:07;23.90;80.80
52903;DHT22;38765;53.176;7.090;2022-09-02T16:50:54;23.80;80.90
52903;DHT22;38765;53.176;7.090;2022-09-02T16:54:14;23.60;80.60
52903;DHT22;38765;53.176;7.090;2022-09-02T16:57:14;23.30;80.20
52903;DHT22;38765;53.176;7.090;2022-09-02T17:00:17;23.40;81.50
52903;DHT22;38765;53.176;7.090;2022-09-02T17:02:45;23.30;83.10
52903;DHT22;38765;53.176;7.090;2022-09-02T17:05:37;23.20;81.10
52903;DHT22;38765;53.176;7.090;2022-09-02T17:08:37;23.10;82.00
52903;DHT22;38765;53.176;7.090;2022-09-02T17:23:10;22.80;82.10
52903;DHT22;38765;53.176;7.090;2022-09-02T17:28:36;22.70;82.60
52903;DHT22;38765;53.176;7.090;2022-09-02T17:31:41;22.70;82.90
52903;DHT22;38765;53.176;7.090;2022-09-02T17:34:37;22.60;83.30
52903;DHT22;38765;53.176;7.090;2022-09-02T17:40:39;22.40;84.00
52903;DHT22;38765;53.176;7.090;2022-09-02T17:43:32;22.50;83.80
52903;DHT22;38765;53.176;7.090;2022-09-02T17:46:11;22.30;83.20
52903;DHT22;38765;53.176;7.090;2022-09-02T17:51:49;22.20;83.70
52903;DHT22;38765;53.176;7.090;2022-09-02T17:54:38;22.20;83.70
52903;DHT22;38765;53.176;7.090;2022-09-02T17:57:53;22.10;84.10
52903;DHT22;38765;53.176;7.090;2022-09-02T18:00:37;21.80;84.80
52903;DHT22;38765;53.176;7.090;2022-09-02T18:06:42;21.80;84.90
52903;DHT22;38765;53.176;7.090;2022-09-02T18:09:14;21.80;85.30
52903;DHT22;38765;53.176;7.090;2022-09-02T18:11:47;21.70;84.90
52903;DHT22;38765;53.176;7.090;2022-09-02T18:14:55;21.60;85.50
52903;DHT22;38765;53.176;7.090;2022-09-02T18:17:37;21.50;85.50
52903;DHT22;38765;53.176;7.090;2022-09-02T18:20:42;21.50;85.70
52903;DHT22;38765;53.176;7.090;2022-09-02T18:24:21;21.40;85.90
52903;DHT22;38765;53.176;7.090;2022-09-02T18:47:00;20.90;87.60
52903;DHT22;38765;53.176;7.090;2022-09-02T18:49:32;20.90;87.70
52903;DHT22;38765;53.176;7.090;2022-09-02T18:52:05;20.80;88.00
52903;DHT22;38765;53.176;7.090;2022-09-02T18:57:43;20.80;88.30
52903;DHT22;38765;53.176;7.090;2022-09-02T19:00:13;20.70;88.30
52903;DHT22;38765;53.176;7.090;2022-09-02T19:03:07;20.70;88.30
52903;DHT22;38765;53.176;7.090;2022-09-02T19:05:36;20.60;89.00
52903;DHT22;38765;53.176;7.090;2022-09-02T19:08:19;20.60;88.80
52903;DHT22;38765;53.176;7.090;2022-09-02T19:11:20;20.60;89.10
52903;DHT22;38765;53.176;7.090;2022-09-02T19:13:50;20.60;89.10
52903;DHT22;38765;53.176;7.090;2022-09-02T19:16:34;20.60;89.10
52903;DHT22;38765;53.176;7.090;2022-09-02T19:19:06;20.50;89.30
52903;DHT22;38765;53.176;7.090;2022-09-02T19:22:03;20.50;89.90
52903;DHT22;38765;53.176;7.090;2022-09-02T19:27:49;20.40;89.30
52903;DHT22;38765;53.176;7.090;2022-09-02T19:30:22;20.40;89.30
52903;DHT22;38765;53.176;7.090;2022-09-02T19:33:01;20.30;89.10
52903;DHT22;38765;53.176;7.090;2022-09-02T19:38:46;20.40;89.60
52903;DHT22;38765;53.176;7.090;2022-09-02T19:41:25;20.40;89.60
52903;DHT22;38765;53.176;7.090;2022-09-02T19:44:38;20.30;90.10
52903;DHT22;38765;53.176;7.090;2022-09-02T19:47:13;20.20;90.00
52903;DHT22;38765;53.176;7.090;2022-09-02T19:49:55;20.00;90.10
52903;DHT22;38765;53.176;7.090;2022-09-02T19:55:50;20.10;90.10
52903;DHT22;38765;53.176;7.090;2022-09-02T19:58:27;20.00;90.30
52903;DHT22;38765;53.176;7.090;2022-09-02T20:04:10;20.00;90.50
52903;DHT22;38765;53.176;7.090;2022-09-02T20:06:44;20.00;90.60
52903;DHT22;38765;53.176;7.090;2022-09-02T20:09:51;19.90;90.60
52903;DHT22;38765;53.176;7.090;2022-09-02T20:12:40;19.80;90.70
52903;DHT22;38765;53.176;7.090;2022-09-02T20:15:23;19.90;90.60
52903;DHT22;38765;53.176;7.090;2022-09-02T20:24:29;19.80;90.60
52903;DHT22;38765;53.176;7.090;2022-09-02T20:39:47;19.60;90.70
52903;DHT22;38765;53.176;7.090;2022-09-02T20:52:14;19.40;90.70
52903;DHT22;38765;53.176;7.090;2022-09-02T21:08:18;19.30;91.00
52903;DHT22;38765;53.176;7.090;2022-09-02T21:11:28;19.30;91.00
52903;DHT22;38765;53.176;7.090;2022-09-02T21:14:46;19.20;91.00
52903;DHT22;38765;53.176;7.090;2022-09-02T21:24:25;19.10;91.20
52903;DHT22;38765;53.176;7.090;2022-09-02T21:31:22;19.10;91.30
52903;DHT22;38765;53.176;7.090;2022-09-02T21:34:17;18.90;91.40
52903;DHT22;38765;53.176;7.090;2022-09-02T21:36:59;18.80;91.30
52903;DHT22;38765;53.176;7.090;2022-09-02T21:40:03;18.80;91.50
52903;DHT22;38765;53.176;7.090;2022-09-02T21:54:15;18.50;92.10
52903;DHT22;38765;53.176;7.090;2022-09-02T22:00:25;18.50;92.30
52903;DHT22;38765;53.176;7.090;2022-09-02T22:05:47;18.30;92.40
52903;DHT22;38765;53.176;7.090;2022-09-02T22:11:52;18.10;92.90
52903;DHT22;38765;53.176;7.090;2022-09-02T22:14:34;18.00;93.00
52903;DHT22;38765;53.176;7.090;2022-09-02T22:17:17;17.90;93.10
52903;DHT22;38765;53.176;7.090;2022-09-02T22:19:51;17.90;93.30
52903;DHT22;38765;53.176;7.090;2022-09-02T22:22:53;17.80;93.40
52903;DHT22;38765;53.176;7.090;2022-09-02T22:25:40;17.80;93.50
52903;DHT22;38765;53.176;7.090;2022-09-02T22:28:56;17.70;93.60
52903;DHT22;38765;53.176;7.090;2022-09-02T22:31:37;17.70;93.80
52903;DHT22;38765;53.176;7.090;2022-09-02T22:34:07;17.60;93.70
52903;DHT22;38765;53.176;7.090;2022-09-02T22:39:42;17.50;94.10
52903;DHT22;38765;53.176;7.090;2022-09-02T22:45:33;17.40;94.30
52903;DHT22;38765;53.176;7.090;2022-09-02T22:48:29;17.40;94.70
52903;DHT22;38765;53.176;7.090;2022-09-02T22:51:28;17.30;94.80
52903;DHT22;38765;53.176;7.090;2022-09-02T22:54:15;17.20;95.20
52903;DHT22;38765;53.176;7.090;2022-09-02T23:02:30;17.10;95.40
52903;DHT22;38765;53.176;7.090;2022-09-02T23:08:15;16.60;95.80
52903;DHT22;38765;53.176;7.090;2022-09-02T23:10:50;16.90;96.00
52903;DHT22;38765;53.176;7.090;2022-09-02T23:22:44;16.80;96.40
52903;DHT22;38765;53.176;7.090;2022-09-02T23:28:14;17.10;96.60
52903;DHT22;38765;53.176;7.090;2022-09-02T23:31:11;16.70;96.50
52903;DHT22;38765;53.176;7.090;2022-09-02T23:34:17;16.70;96.80
52903;DHT22;38765;53.176;7.090;2022-09-02T23:50:16;16.40;97.40
